sensor_id;sensor_type;location;lat;lon;timestamp;P1;durP1;ratioP1;P2;durP2;ratioP2
85154;SDS011;75523;53.218;6.564;2024-03-25T00:00:43;38.80;;;35.78;;
85154;SDS011;75523;53.218;6.564;2024-03-25T00:03:09;38.53;;;36.10;;
85154;SDS011;75523;53.218;6.564;2024-03-25T00:05:34;39.97;;;37.45;;
85154;SDS011;75523;53.218;6.564;2024-03-25T00:07:59;37.03;;;34.42;;
85154;SDS011;75523;53.218;6.564;2024-03-25T00:10:25;42.47;;;39.55;;
85154;SDS011;75523;53.218;6.564;2024-03-25T00:12:50;40.53;;;37.58;;
85154;SDS011;75523;53.218;6.564;2024-03-25T00:15:19;42.25;;;39.50;;
85154;SDS011;75523;53.218;6.564;2024-03-25T00:17:45;43.47;;;40.60;;
85154;SDS011;75523;53.218;6.564;2024-03-25T00:20:14;41.00;;;37.92;;
85154;SDS011;75523;53.218;6.564;2024-03-25T00:22:40;41.22;;;38.65;;
85154;SDS011;75523;53.218;6.564;2024-03-25T00:25:06;42.38;;;39.58;;
85154;SDS011;75523;53.218;6.564;2024-03-25T00:27:32;42.13;;;38.78;;
85154;SDS011;75523;53.218;6.564;2024-03-25T00:29:57;42.63;;;39.55;;
85154;SDS011;75523;53.218;6.564;2024-03-25T00:32:23;45.13;;;42.10;;
85154;SDS011;75523;53.218;6.564;2024-03-25T00:34:48;43.13;;;39.67;;
85154;SDS011;75523;53.218;6.564;2024-03-25T00:37:14;44.55;;;41.08;;
85154;SDS011;75523;53.218;6.564;2024-03-25T00:39:39;46.67;;;43.13;;
85154;SDS011;75523;53.218;6.564;2024-03-25T00:42:05;45.78;;;42.25;;
85154;SDS011;75523;53.218;6.564;2024-03-25T00:44:30;43.83;;;40.40;;
85154;SDS011;75523;53.218;6.564;2024-03-25T00:46:55;41.17;;;38.03;;
85154;SDS011;75523;53.218;6.564;2024-03-25T00:49:21;44.63;;;41.47;;
85154;SDS011;75523;53.218;6.564;2024-03-25T00:51:46;48.00;;;44.83;;
85154;SDS011;75523;53.218;6.564;2024-03-25T00:54:12;43.60;;;40.40;;
85154;SDS011;75523;53.218;6.564;2024-03-25T00:56:37;44.13;;;40.50;;
85154;SDS011;75523;53.218;6.564;2024-03-25T00:59:03;43.33;;;39.67;;
85154;SDS011;75523;53.218;6.564;2024-03-25T01:01:32;50.75;;;46.15;;
85154;SDS011;75523;53.218;6.564;2024-03-25T01:03:58;41.47;;;38.45;;
85154;SDS011;75523;53.218;6.564;2024-03-25T01:06:23;45.58;;;42.25;;
85154;SDS011;75523;53.218;6.564;2024-03-25T01:08:49;45.88;;;41.92;;
85154;SDS011;75523;53.218;6.564;2024-03-25T01:11:15;43.17;;;39.88;;
85154;SDS011;75523;53.218;6.564;2024-03-25T01:23:46;44.72;;;41.55;;
85154;SDS011;75523;53.218;6.564;2024-03-25T01:26:11;43.95;;;40.20;;
85154;SDS011;75523;53.218;6.564;2024-03-25T01:28:37;42.05;;;38.42;;
85154;SDS011;75523;53.218;6.564;2024-03-25T01:31:02;44.70;;;41.22;;
85154;SDS011;75523;53.218;6.564;2024-03-25T01:33:29;41.47;;;38.65;;
85154;SDS011;75523;53.218;6.564;2024-03-25T01:35:55;44.72;;;41.33;;
85154;SDS011;75523;53.218;6.564;2024-03-25T01:38:20;43.65;;;40.15;;
85154;SDS011;75523;53.218;6.564;2024-03-25T01:40:46;44.67;;;41.53;;
85154;SDS011;75523;53.218;6.564;2024-03-25T01:43:12;41.10;;;38.28;;
85154;SDS011;75523;53.218;6.564;2024-03-25T01:45:37;42.63;;;39.05;;
85154;SDS011;75523;53.218;6.564;2024-03-25T01:48:04;45.13;;;42.22;;
85154;SDS011;75523;53.218;6.564;2024-03-25T01:50:33;40.30;;;37.05;;
85154;SDS011;75523;53.218;6.564;2024-03-25T01:55:26;45.33;;;42.00;;
85154;SDS011;75523;53.218;6.564;2024-03-25T02:07:58;44.00;;;40.33;;
85154;SDS011;75523;53.218;6.564;2024-03-25T02:10:24;41.50;;;39.08;;
85154;SDS011;75523;53.218;6.564;2024-03-25T02:12:50;47.20;;;43.50;;
85154;SDS011;75523;53.218;6.564;2024-03-25T02:15:16;42.58;;;39.60;;
85154;SDS011;75523;53.218;6.564;2024-03-25T02:17:42;41.20;;;38.60;;
85154;SDS011;75523;53.218;6.564;2024-03-25T02:20:08;41.67;;;39.05;;
85154;SDS011;75523;53.218;6.564;2024-03-25T02:22:34;45.92;;;42.78;;
85154;SDS011;75523;53.218;6.564;2024-03-25T02:25:05;40.28;;;37.58;;
85154;SDS011;75523;53.218;6.564;2024-03-25T02:27:33;43.97;;;40.70;;
85154;SDS011;75523;53.218;6.564;2024-03-25T02:32:32;43.88;;;40.58;;
85154;SDS011;75523;53.218;6.564;2024-03-25T02:34:58;43.53;;;40.40;;
85154;SDS011;75523;53.218;6.564;2024-03-25T02:37:24;43.47;;;40.22;;
85154;SDS011;75523;53.218;6.564;2024-03-25T02:39:49;43.72;;;40.30;;
85154;SDS011;75523;53.218;6.564;2024-03-25T02:42:15;42.25;;;39.53;;
85154;SDS011;75523;53.218;6.564;2024-03-25T02:44:40;42.92;;;40.17;;
85154;SDS011;75523;53.218;6.564;2024-03-25T02:47:08;43.38;;;40.83;;
85154;SDS011;75523;53.218;6.564;2024-03-25T02:49:34;46.20;;;43.05;;
85154;SDS011;75523;53.218;6.564;2024-03-25T02:51:59;46.42;;;43.67;;
85154;SDS011;75523;53.218;6.564;2024-03-25T02:54:25;43.90;;;40.85;;
85154;SDS011;75523;53.218;6.564;2024-03-25T02:56:50;41.22;;;38.72;;
85154;SDS011;75523;53.218;6.564;2024-03-25T02:59:16;43.97;;;41.30;;
85154;SDS011;75523;53.218;6.564;2024-03-25T03:01:41;46.90;;;44.17;;
85154;SDS011;75523;53.218;6.564;2024-03-25T03:04:07;46.35;;;42.90;;
85154;SDS011;75523;53.218;6.564;2024-03-25T03:06:32;43.35;;;40.50;;
85154;SDS011;75523;53.218;6.564;2024-03-25T03:08:57;42.83;;;39.55;;
85154;SDS011;75523;53.218;6.564;2024-03-25T03:11:23;43.63;;;40.60;;
85154;SDS011;75523;53.218;6.564;2024-03-25T03:13:48;46.80;;;43.35;;
85154;SDS011;75523;53.218;6.564;2024-03-25T03:16:14;41.35;;;38.50;;
85154;SDS011;75523;53.218;6.564;2024-03-25T03:18:39;41.72;;;38.65;;
85154;SDS011;75523;53.218;6.564;2024-03-25T03:21:04;41.08;;;38.17;;
85154;SDS011;75523;53.218;6.564;2024-03-25T03:23:30;41.97;;;38.92;;
85154;SDS011;75523;53.218;6.564;2024-03-25T03:25:55;46.20;;;42.63;;
85154;SDS011;75523;53.218;6.564;2024-03-25T03:28:22;46.25;;;43.42;;
85154;SDS011;75523;53.218;6.564;2024-03-25T03:30:47;39.50;;;36.90;;
85154;SDS011;75523;53.218;6.564;2024-03-25T03:33:13;40.08;;;37.40;;
85154;SDS011;75523;53.218;6.564;2024-03-25T03:35:38;40.95;;;38.30;;
85154;SDS011;75523;53.218;6.564;2024-03-25T03:38:03;43.50;;;40.92;;
85154;SDS011;75523;53.218;6.564;2024-03-25T03:40:29;41.58;;;38.67;;
85154;SDS011;75523;53.218;6.564;2024-03-25T03:42:55;43.80;;;40.67;;
85154;SDS011;75523;53.218;6.564;2024-03-25T03:45:21;42.72;;;39.92;;
85154;SDS011;75523;53.218;6.564;2024-03-25T03:47:48;47.88;;;44.65;;
85154;SDS011;75523;53.218;6.564;2024-03-25T03:50:14;38.70;;;36.10;;
85154;SDS011;75523;53.218;6.564;2024-03-25T03:52:39;42.95;;;40.03;;
85154;SDS011;75523;53.218;6.564;2024-03-25T03:55:05;43.03;;;39.88;;
85154;SDS011;75523;53.218;6.564;2024-03-25T03:57:31;38.10;;;35.47;;
85154;SDS011;75523;53.218;6.564;2024-03-25T03:59:57;45.33;;;42.25;;
85154;SDS011;75523;53.218;6.564;2024-03-25T04:02:24;42.53;;;39.35;;
85154;SDS011;75523;53.218;6.564;2024-03-25T04:04:50;45.33;;;42.33;;
85154;SDS011;75523;53.218;6.564;2024-03-25T04:07:16;45.80;;;42.58;;
85154;SDS011;75523;53.218;6.564;2024-03-25T04:09:42;43.53;;;40.63;;
85154;SDS011;75523;53.218;6.564;2024-03-25T04:12:08;41.17;;;38.53;;
85154;SDS011;75523;53.218;6.564;2024-03-25T04:14:34;43.17;;;40.20;;
85154;SDS011;75523;53.218;6.564;2024-03-25T04:16:59;42.25;;;39.17;;
85154;SDS011;75523;53.218;6.564;2024-03-25T04:19:25;44.60;;;41.00;;
85154;SDS011;75523;53.218;6.564;2024-03-25T04:21:51;44.22;;;41.30;;
85154;SDS011;75523;53.218;6.564;2024-03-25T04:24:16;41.78;;;38.83;;
85154;SDS011;75523;53.218;6.564;2024-03-25T04:26:43;45.65;;;42.97;;
85154;SDS011;75523;53.218;6.564;2024-03-25T04:29:09;42.88;;;40.20;;
85154;SDS011;75523;53.218;6.564;2024-03-25T04:31:34;44.47;;;41.60;;
85154;SDS011;75523;53.218;6.564;2024-03-25T04:34:01;44.47;;;41.35;;
85154;SDS011;75523;53.218;6.564;2024-03-25T04:36:27;43.25;;;40.30;;
85154;SDS011;75523;53.218;6.564;2024-03-25T04:38:52;44.20;;;41.20;;
85154;SDS011;75523;53.218;6.564;2024-03-25T04:41:17;44.28;;;40.47;;
85154;SDS011;75523;53.218;6.564;2024-03-25T04:43:43;42.55;;;39.08;;
85154;SDS011;75523;53.218;6.564;2024-03-25T04:46:08;44.90;;;41.22;;
85154;SDS011;75523;53.218;6.564;2024-03-25T04:48:34;46.10;;;42.60;;
85154;SDS011;75523;53.218;6.564;2024-03-25T04:50:59;45.60;;;42.30;;
85154;SDS011;75523;53.218;6.564;2024-03-25T04:53:25;42.95;;;39.95;;
85154;SDS011;75523;53.218;6.564;2024-03-25T04:55:50;45.65;;;41.97;;
85154;SDS011;75523;53.218;6.564;2024-03-25T04:58:16;45.47;;;42.50;;
85154;SDS011;75523;53.218;6.564;2024-03-25T05:00:41;41.97;;;38.63;;
85154;SDS011;75523;53.218;6.564;2024-03-25T05:03:07;42.83;;;40.03;;
85154;SDS011;75523;53.218;6.564;2024-03-25T05:05:33;42.55;;;39.22;;
85154;SDS011;75523;53.218;6.564;2024-03-25T05:07:58;45.38;;;42.05;;
85154;SDS011;75523;53.218;6.564;2024-03-25T05:10:24;43.00;;;40.08;;
85154;SDS011;75523;53.218;6.564;2024-03-25T05:12:50;46.13;;;42.60;;
85154;SDS011;75523;53.218;6.564;2024-03-25T05:15:15;44.60;;;41.65;;
85154;SDS011;75523;53.218;6.564;2024-03-25T05:17:41;44.53;;;41.30;;
85154;SDS011;75523;53.218;6.564;2024-03-25T05:20:07;43.97;;;40.20;;
85154;SDS011;75523;53.218;6.564;2024-03-25T05:22:32;45.45;;;42.03;;
85154;SDS011;75523;53.218;6.564;2024-03-25T05:24:58;44.10;;;40.88;;
85154;SDS011;75523;53.218;6.564;2024-03-25T05:27:23;46.45;;;43.15;;
85154;SDS011;75523;53.218;6.564;2024-03-25T05:29:49;45.47;;;41.50;;
85154;SDS011;75523;53.218;6.564;2024-03-25T05:32:14;46.42;;;42.38;;
85154;SDS011;75523;53.218;6.564;2024-03-25T05:34:41;42.10;;;38.97;;
85154;SDS011;75523;53.218;6.564;2024-03-25T05:37:07;42.95;;;40.03;;
85154;SDS011;75523;53.218;6.564;2024-03-25T05:39:32;45.05;;;41.40;;
85154;SDS011;75523;53.218;6.564;2024-03-25T05:41:58;44.05;;;40.90;;
85154;SDS011;75523;53.218;6.564;2024-03-25T05:44:23;42.42;;;38.92;;
85154;SDS011;75523;53.218;6.564;2024-03-25T05:46:48;45.22;;;41.97;;
85154;SDS011;75523;53.218;6.564;2024-03-25T05:49:14;46.05;;;43.10;;
85154;SDS011;75523;53.218;6.564;2024-03-25T05:51:39;47.30;;;44.20;;
85154;SDS011;75523;53.218;6.564;2024-03-25T05:54:05;44.78;;;41.03;;
85154;SDS011;75523;53.218;6.564;2024-03-25T05:56:30;42.38;;;39.17;;
85154;SDS011;75523;53.218;6.564;2024-03-25T05:58:56;45.38;;;41.72;;
85154;SDS011;75523;53.218;6.564;2024-03-25T06:01:22;44.85;;;41.47;;
85154;SDS011;75523;53.218;6.564;2024-03-25T06:03:48;45.63;;;42.35;;
85154;SDS011;75523;53.218;6.564;2024-03-25T06:06:13;46.20;;;42.92;;
85154;SDS011;75523;53.218;6.564;2024-03-25T06:08:38;47.80;;;44.28;;
85154;SDS011;75523;53.218;6.564;2024-03-25T06:11:04;41.88;;;38.72;;
85154;SDS011;75523;53.218;6.564;2024-03-25T06:13:29;44.58;;;41.72;;
85154;SDS011;75523;53.218;6.564;2024-03-25T06:15:55;43.85;;;40.75;;
85154;SDS011;75523;53.218;6.564;2024-03-25T06:18:20;43.13;;;40.15;;
85154;SDS011;75523;53.218;6.564;2024-03-25T06:20:45;43.70;;;40.35;;
85154;SDS011;75523;53.218;6.564;2024-03-25T06:23:20;42.90;;;39.22;;
85154;SDS011;75523;53.218;6.564;2024-03-25T06:25:47;42.80;;;40.28;;
85154;SDS011;75523;53.218;6.564;2024-03-25T06:28:12;42.78;;;39.92;;
85154;SDS011;75523;53.218;6.564;2024-03-25T06:30:38;44.75;;;41.10;;
85154;SDS011;75523;53.218;6.564;2024-03-25T06:33:22;45.65;;;41.78;;
85154;SDS011;75523;53.218;6.564;2024-03-25T06:36:06;41.17;;;38.30;;
85154;SDS011;75523;53.218;6.564;2024-03-25T06:38:32;42.33;;;39.45;;
85154;SDS011;75523;53.218;6.564;2024-03-25T06:40:57;44.95;;;41.88;;
85154;SDS011;75523;53.218;6.564;2024-03-25T06:43:23;45.60;;;42.20;;
85154;SDS011;75523;53.218;6.564;2024-03-25T06:45:49;45.28;;;42.40;;
85154;SDS011;75523;53.218;6.564;2024-03-25T06:48:14;43.85;;;40.72;;
85154;SDS011;75523;53.218;6.564;2024-03-25T06:50:39;44.50;;;41.25;;
85154;SDS011;75523;53.218;6.564;2024-03-25T06:53:05;41.92;;;38.92;;
85154;SDS011;75523;53.218;6.564;2024-03-25T06:55:30;41.95;;;39.28;;
85154;SDS011;75523;53.218;6.564;2024-03-25T06:57:56;44.13;;;40.72;;
85154;SDS011;75523;53.218;6.564;2024-03-25T07:00:21;43.25;;;40.45;;
85154;SDS011;75523;53.218;6.564;2024-03-25T07:02:47;43.30;;;40.30;;
85154;SDS011;75523;53.218;6.564;2024-03-25T07:05:13;40.03;;;37.45;;
85154;SDS011;75523;53.218;6.564;2024-03-25T07:07:38;40.95;;;38.35;;
85154;SDS011;75523;53.218;6.564;2024-03-25T07:10:04;42.65;;;39.40;;
85154;SDS011;75523;53.218;6.564;2024-03-25T07:12:30;42.42;;;39.72;;
85154;SDS011;75523;53.218;6.564;2024-03-25T07:14:55;40.00;;;37.25;;
85154;SDS011;75523;53.218;6.564;2024-03-25T07:17:21;39.42;;;36.78;;
85154;SDS011;75523;53.218;6.564;2024-03-25T07:19:47;39.85;;;37.17;;
85154;SDS011;75523;53.218;6.564;2024-03-25T07:22:12;37.55;;;35.20;;
85154;SDS011;75523;53.218;6.564;2024-03-25T07:24:38;38.72;;;35.67;;
85154;SDS011;75523;53.218;6.564;2024-03-25T07:27:03;38.92;;;36.15;;
85154;SDS011;75523;53.218;6.564;2024-03-25T07:29:29;40.03;;;37.25;;
85154;SDS011;75523;53.218;6.564;2024-03-25T07:31:54;39.05;;;36.75;;
85154;SDS011;75523;53.218;6.564;2024-03-25T07:34:20;42.13;;;39.15;;
85154;SDS011;75523;53.218;6.564;2024-03-25T07:36:45;40.28;;;37.33;;
85154;SDS011;75523;53.218;6.564;2024-03-25T07:39:11;40.33;;;37.60;;
85154;SDS011;75523;53.218;6.564;2024-03-25T07:41:39;38.38;;;35.58;;
85154;SDS011;75523;53.218;6.564;2024-03-25T07:44:04;39.25;;;36.75;;
85154;SDS011;75523;53.218;6.564;2024-03-25T07:46:30;38.75;;;36.25;;
85154;SDS011;75523;53.218;6.564;2024-03-25T07:48:56;38.85;;;36.63;;
85154;SDS011;75523;53.218;6.564;2024-03-25T07:51:21;36.92;;;34.50;;
85154;SDS011;75523;53.218;6.564;2024-03-25T07:53:47;37.50;;;35.55;;
85154;SDS011;75523;53.218;6.564;2024-03-25T07:56:12;35.47;;;33.20;;
85154;SDS011;75523;53.218;6.564;2024-03-25T07:58:38;39.90;;;36.67;;
85154;SDS011;75523;53.218;6.564;2024-03-25T08:01:03;37.22;;;35.00;;
85154;SDS011;75523;53.218;6.564;2024-03-25T08:03:29;35.33;;;33.08;;
85154;SDS011;75523;53.218;6.564;2024-03-25T08:05:54;37.63;;;35.08;;
85154;SDS011;75523;53.218;6.564;2024-03-25T08:08:20;34.10;;;32.15;;
85154;SDS011;75523;53.218;6.564;2024-03-25T08:10:45;35.38;;;33.05;;
85154;SDS011;75523;53.218;6.564;2024-03-25T08:13:11;36.63;;;34.10;;
85154;SDS011;75523;53.218;6.564;2024-03-25T08:15:36;36.95;;;34.83;;
85154;SDS011;75523;53.218;6.564;2024-03-25T08:18:02;37.25;;;34.92;;
85154;SDS011;75523;53.218;6.564;2024-03-25T08:20:27;38.53;;;36.38;;
85154;SDS011;75523;53.218;6.564;2024-03-25T08:22:53;35.72;;;33.38;;
85154;SDS011;75523;53.218;6.564;2024-03-25T08:25:18;31.75;;;29.75;;
85154;SDS011;75523;53.218;6.564;2024-03-25T08:27:44;35.17;;;32.88;;
85154;SDS011;75523;53.218;6.564;2024-03-25T08:30:09;33.45;;;31.55;;
85154;SDS011;75523;53.218;6.564;2024-03-25T08:32:35;33.20;;;31.33;;
85154;SDS011;75523;53.218;6.564;2024-03-25T08:35:00;31.80;;;29.80;;
85154;SDS011;75523;53.218;6.564;2024-03-25T08:37:26;33.83;;;31.73;;
85154;SDS011;75523;53.218;6.564;2024-03-25T08:39:51;33.20;;;31.02;;
85154;SDS011;75523;53.218;6.564;2024-03-25T08:42:17;31.25;;;29.45;;
85154;SDS011;75523;53.218;6.564;2024-03-25T08:44:42;30.92;;;29.02;;
85154;SDS011;75523;53.218;6.564;2024-03-25T08:47:07;33.13;;;30.90;;
85154;SDS011;75523;53.218;6.564;2024-03-25T08:49:33;32.63;;;30.50;;
85154;SDS011;75523;53.218;6.564;2024-03-25T08:51:58;30.63;;;28.73;;
85154;SDS011;75523;53.218;6.564;2024-03-25T08:54:24;34.13;;;31.80;;
85154;SDS011;75523;53.218;6.564;2024-03-25T08:56:49;35.17;;;32.97;;
85154;SDS011;75523;53.218;6.564;2024-03-25T08:59:15;35.25;;;33.03;;
85154;SDS011;75523;53.218;6.564;2024-03-25T09:01:40;32.17;;;30.52;;
85154;SDS011;75523;53.218;6.564;2024-03-25T09:04:05;32.88;;;30.85;;
85154;SDS011;75523;53.218;6.564;2024-03-25T09:06:31;33.63;;;31.30;;
85154;SDS011;75523;53.218;6.564;2024-03-25T09:08:57;34.08;;;31.98;;
85154;SDS011;75523;53.218;6.564;2024-03-25T09:11:44;35.60;;;33.30;;
85154;SDS011;75523;53.218;6.564;2024-03-25T09:14:09;33.72;;;31.50;;
85154;SDS011;75523;53.218;6.564;2024-03-25T09:16:37;37.70;;;35.60;;
85154;SDS011;75523;53.218;6.564;2024-03-25T09:19:02;31.60;;;29.63;;
85154;SDS011;75523;53.218;6.564;2024-03-25T09:21:28;32.08;;;29.90;;
85154;SDS011;75523;53.218;6.564;2024-03-25T09:23:55;30.63;;;28.90;;
85154;SDS011;75523;53.218;6.564;2024-03-25T09:26:22;29.50;;;27.90;;
85154;SDS011;75523;53.218;6.564;2024-03-25T09:28:48;30.17;;;28.27;;
85154;SDS011;75523;53.218;6.564;2024-03-25T09:31:13;28.55;;;26.77;;
85154;SDS011;75523;53.218;6.564;2024-03-25T09:33:39;28.20;;;26.40;;
85154;SDS011;75523;53.218;6.564;2024-03-25T09:36:04;27.20;;;25.63;;
85154;SDS011;75523;53.218;6.564;2024-03-25T09:38:30;29.48;;;27.88;;
85154;SDS011;75523;53.218;6.564;2024-03-25T09:40:56;28.10;;;26.50;;
85154;SDS011;75523;53.218;6.564;2024-03-25T09:43:27;27.10;;;25.70;;
85154;SDS011;75523;53.218;6.564;2024-03-25T09:45:57;30.15;;;28.30;;
85154;SDS011;75523;53.218;6.564;2024-03-25T09:48:26;26.25;;;24.80;;
85154;SDS011;75523;53.218;6.564;2024-03-25T09:50:52;29.10;;;27.25;;
85154;SDS011;75523;53.218;6.564;2024-03-25T09:53:21;29.38;;;27.58;;
85154;SDS011;75523;53.218;6.564;2024-03-25T09:55:47;30.23;;;28.45;;
85154;SDS011;75523;53.218;6.564;2024-03-25T09:58:12;26.15;;;24.60;;
85154;SDS011;75523;53.218;6.564;2024-03-25T10:00:39;28.38;;;26.63;;
85154;SDS011;75523;53.218;6.564;2024-03-25T10:03:04;28.58;;;26.83;;
85154;SDS011;75523;53.218;6.564;2024-03-25T10:05:31;27.05;;;25.40;;
85154;SDS011;75523;53.218;6.564;2024-03-25T10:07:57;27.23;;;25.63;;
85154;SDS011;75523;53.218;6.564;2024-03-25T10:10:22;26.63;;;25.05;;
85154;SDS011;75523;53.218;6.564;2024-03-25T10:12:48;25.80;;;23.75;;
85154;SDS011;75523;53.218;6.564;2024-03-25T10:15:16;26.75;;;24.98;;
85154;SDS011;75523;53.218;6.564;2024-03-25T10:17:42;26.73;;;25.20;;
85154;SDS011;75523;53.218;6.564;2024-03-25T10:20:18;28.08;;;26.50;;
85154;SDS011;75523;53.218;6.564;2024-03-25T10:22:44;28.23;;;26.50;;
85154;SDS011;75523;53.218;6.564;2024-03-25T10:25:29;24.70;;;23.20;;
85154;SDS011;75523;53.218;6.564;2024-03-25T10:27:56;29.25;;;27.55;;
85154;SDS011;75523;53.218;6.564;2024-03-25T10:30:27;31.42;;;29.23;;
85154;SDS011;75523;53.218;6.564;2024-03-25T10:33:00;29.13;;;27.15;;
85154;SDS011;75523;53.218;6.564;2024-03-25T10:35:27;32.30;;;30.23;;
85154;SDS011;75523;53.218;6.564;2024-03-25T10:37:57;32.75;;;30.30;;
85154;SDS011;75523;53.218;6.564;2024-03-25T10:40:26;34.42;;;32.30;;
85154;SDS011;75523;53.218;6.564;2024-03-25T10:43:02;35.67;;;33.17;;
85154;SDS011;75523;53.218;6.564;2024-03-25T10:45:31;31.88;;;29.75;;
85154;SDS011;75523;53.218;6.564;2024-03-25T10:48:00;33.13;;;30.88;;
85154;SDS011;75523;53.218;6.564;2024-03-25T10:50:28;35.10;;;32.50;;
85154;SDS011;75523;53.218;6.564;2024-03-25T10:52:54;33.22;;;31.13;;
85154;SDS011;75523;53.218;6.564;2024-03-25T10:55:20;34.15;;;31.92;;
85154;SDS011;75523;53.218;6.564;2024-03-25T10:57:47;36.38;;;33.45;;
85154;SDS011;75523;53.218;6.564;2024-03-25T11:00:13;34.90;;;32.65;;
85154;SDS011;75523;53.218;6.564;2024-03-25T11:02:40;33.83;;;30.92;;
85154;SDS011;75523;53.218;6.564;2024-03-25T11:05:07;33.13;;;31.05;;
85154;SDS011;75523;53.218;6.564;2024-03-25T11:07:34;32.20;;;30.20;;
85154;SDS011;75523;53.218;6.564;2024-03-25T11:10:02;32.30;;;30.40;;
85154;SDS011;75523;53.218;6.564;2024-03-25T11:12:32;30.90;;;28.77;;
85154;SDS011;75523;53.218;6.564;2024-03-25T11:15:01;29.15;;;27.33;;
85154;SDS011;75523;53.218;6.564;2024-03-25T11:17:28;28.63;;;26.88;;
85154;SDS011;75523;53.218;6.564;2024-03-25T11:19:54;26.15;;;24.63;;
85154;SDS011;75523;53.218;6.564;2024-03-25T11:22:24;22.50;;;21.08;;
85154;SDS011;75523;53.218;6.564;2024-03-25T11:24:50;24.42;;;22.52;;
85154;SDS011;75523;53.218;6.564;2024-03-25T11:27:26;23.33;;;21.73;;
85154;SDS011;75523;53.218;6.564;2024-03-25T11:29:53;22.23;;;20.20;;
85154;SDS011;75523;53.218;6.564;2024-03-25T11:32:18;20.92;;;19.27;;
85154;SDS011;75523;53.218;6.564;2024-03-25T11:34:50;19.00;;;17.52;;
85154;SDS011;75523;53.218;6.564;2024-03-25T11:37:16;19.00;;;17.52;;
85154;SDS011;75523;53.218;6.564;2024-03-25T11:39:41;18.98;;;16.90;;
85154;SDS011;75523;53.218;6.564;2024-03-25T11:42:10;19.27;;;17.75;;
85154;SDS011;75523;53.218;6.564;2024-03-25T11:44:38;18.85;;;17.63;;
85154;SDS011;75523;53.218;6.564;2024-03-25T11:47:06;20.65;;;19.15;;
85154;SDS011;75523;53.218;6.564;2024-03-25T11:49:32;23.02;;;21.33;;
85154;SDS011;75523;53.218;6.564;2024-03-25T11:51:58;22.58;;;20.83;;
85154;SDS011;75523;53.218;6.564;2024-03-25T11:54:26;26.08;;;24.25;;
85154;SDS011;75523;53.218;6.564;2024-03-25T11:56:54;26.23;;;23.90;;
85154;SDS011;75523;53.218;6.564;2024-03-25T11:59:20;27.42;;;25.48;;
85154;SDS011;75523;53.218;6.564;2024-03-25T12:01:45;29.70;;;27.38;;
85154;SDS011;75523;53.218;6.564;2024-03-25T12:04:17;29.60;;;27.20;;
85154;SDS011;75523;53.218;6.564;2024-03-25T12:06:43;29.05;;;27.35;;
85154;SDS011;75523;53.218;6.564;2024-03-25T12:09:10;28.35;;;26.52;;
85154;SDS011;75523;53.218;6.564;2024-03-25T12:11:54;29.63;;;27.30;;
85154;SDS011;75523;53.218;6.564;2024-03-25T12:14:21;31.20;;;28.90;;
85154;SDS011;75523;53.218;6.564;2024-03-25T12:16:48;31.05;;;28.52;;
85154;SDS011;75523;53.218;6.564;2024-03-25T12:19:15;31.67;;;29.50;;
85154;SDS011;75523;53.218;6.564;2024-03-25T12:21:41;32.47;;;30.40;;
85154;SDS011;75523;53.218;6.564;2024-03-25T12:24:06;32.20;;;29.70;;
85154;SDS011;75523;53.218;6.564;2024-03-25T12:26:34;31.60;;;29.75;;
85154;SDS011;75523;53.218;6.564;2024-03-25T12:28:59;31.85;;;29.63;;
85154;SDS011;75523;53.218;6.564;2024-03-25T12:31:25;31.73;;;29.42;;
85154;SDS011;75523;53.218;6.564;2024-03-25T12:33:50;30.88;;;28.83;;
85154;SDS011;75523;53.218;6.564;2024-03-25T12:36:16;32.55;;;30.23;;
85154;SDS011;75523;53.218;6.564;2024-03-25T12:38:41;34.65;;;31.73;;
85154;SDS011;75523;53.218;6.564;2024-03-25T12:41:08;32.22;;;29.98;;
85154;SDS011;75523;53.218;6.564;2024-03-25T12:43:35;30.67;;;28.33;;
85154;SDS011;75523;53.218;6.564;2024-03-25T12:46:01;32.45;;;30.25;;
85154;SDS011;75523;53.218;6.564;2024-03-25T12:48:30;33.95;;;31.58;;
85154;SDS011;75523;53.218;6.564;2024-03-25T12:50:55;29.92;;;28.00;;
85154;SDS011;75523;53.218;6.564;2024-03-25T12:53:21;30.88;;;28.77;;
85154;SDS011;75523;53.218;6.564;2024-03-25T12:55:47;31.77;;;29.58;;
85154;SDS011;75523;53.218;6.564;2024-03-25T12:58:13;29.05;;;27.10;;
85154;SDS011;75523;53.218;6.564;2024-03-25T13:00:38;30.17;;;27.92;;
85154;SDS011;75523;53.218;6.564;2024-03-25T13:03:04;30.85;;;28.55;;
85154;SDS011;75523;53.218;6.564;2024-03-25T13:05:31;28.95;;;27.05;;
85154;SDS011;75523;53.218;6.564;2024-03-25T13:07:57;30.15;;;28.15;;
85154;SDS011;75523;53.218;6.564;2024-03-25T13:10:22;28.63;;;26.58;;
85154;SDS011;75523;53.218;6.564;2024-03-25T13:12:48;30.20;;;28.15;;
85154;SDS011;75523;53.218;6.564;2024-03-25T13:15:13;28.25;;;26.48;;
85154;SDS011;75523;53.218;6.564;2024-03-25T13:17:39;28.70;;;25.92;;
85154;SDS011;75523;53.218;6.564;2024-03-25T13:20:04;27.38;;;25.27;;
85154;SDS011;75523;53.218;6.564;2024-03-25T13:22:30;28.48;;;26.23;;
85154;SDS011;75523;53.218;6.564;2024-03-25T13:24:57;27.10;;;25.10;;
85154;SDS011;75523;53.218;6.564;2024-03-25T13:27:23;25.02;;;23.25;;
85154;SDS011;75523;53.218;6.564;2024-03-25T13:29:48;26.60;;;24.67;;
85154;SDS011;75523;53.218;6.564;2024-03-25T13:32:14;26.98;;;24.98;;
85154;SDS011;75523;53.218;6.564;2024-03-25T13:34:39;28.55;;;26.35;;
85154;SDS011;75523;53.218;6.564;2024-03-25T13:37:05;26.88;;;24.58;;
85154;SDS011;75523;53.218;6.564;2024-03-25T13:39:31;26.17;;;24.27;;
85154;SDS011;75523;53.218;6.564;2024-03-25T13:41:56;24.42;;;22.48;;
85154;SDS011;75523;53.218;6.564;2024-03-25T13:44:22;24.83;;;23.15;;
85154;SDS011;75523;53.218;6.564;2024-03-25T13:46:47;26.30;;;23.70;;
85154;SDS011;75523;53.218;6.564;2024-03-25T13:49:13;28.35;;;26.35;;
85154;SDS011;75523;53.218;6.564;2024-03-25T13:51:42;25.40;;;23.70;;
85154;SDS011;75523;53.218;6.564;2024-03-25T13:54:07;25.65;;;23.77;;
85154;SDS011;75523;53.218;6.564;2024-03-25T13:56:32;28.10;;;25.90;;
85154;SDS011;75523;53.218;6.564;2024-03-25T13:58:58;25.92;;;24.17;;
85154;SDS011;75523;53.218;6.564;2024-03-25T14:01:23;25.95;;;24.25;;
85154;SDS011;75523;53.218;6.564;2024-03-25T14:03:49;24.90;;;23.42;;
85154;SDS011;75523;53.218;6.564;2024-03-25T14:06:15;27.25;;;25.50;;
85154;SDS011;75523;53.218;6.564;2024-03-25T14:08:40;23.77;;;22.23;;
85154;SDS011;75523;53.218;6.564;2024-03-25T14:11:07;27.05;;;24.92;;
85154;SDS011;75523;53.218;6.564;2024-03-25T14:13:33;25.50;;;23.55;;
85154;SDS011;75523;53.218;6.564;2024-03-25T14:15:59;25.73;;;23.65;;
85154;SDS011;75523;53.218;6.564;2024-03-25T14:18:24;23.70;;;22.15;;
85154;SDS011;75523;53.218;6.564;2024-03-25T14:20:51;23.70;;;21.92;;
85154;SDS011;75523;53.218;6.564;2024-03-25T14:23:16;23.33;;;21.92;;
85154;SDS011;75523;53.218;6.564;2024-03-25T14:25:42;23.30;;;21.25;;
85154;SDS011;75523;53.218;6.564;2024-03-25T14:28:07;25.27;;;23.38;;
85154;SDS011;75523;53.218;6.564;2024-03-25T14:30:33;25.23;;;23.42;;
85154;SDS011;75523;53.218;6.564;2024-03-25T14:32:58;28.25;;;25.95;;
85154;SDS011;75523;53.218;6.564;2024-03-25T14:35:24;25.83;;;23.77;;
85154;SDS011;75523;53.218;6.564;2024-03-25T14:37:49;29.48;;;27.13;;
85154;SDS011;75523;53.218;6.564;2024-03-25T14:40:15;27.48;;;25.48;;